KVOK/VOK METAR and TAF weather

Enter ICAO airport designator
Station Type Date Time Source
KVOK METAR 2022/05/25 01:12 UTC NOAA

KVOK 250112Z 12012KT 10SM -RA SCT055 OVC090 15/06 A3015 RMK AO2A


Station Type Date Time Source
KVOK Decoded METAR 2022/05/25 01:12 UTC NOAA

Volk / Camp Douglas, WI, United States (KVOK) 43-56N 090-16W
May 24, 2022 - 09:12 PM EDT / 2022.05.25 0112 UTC
Wind: from the ESE (120 degrees) at 14 MPH (12 KT):0
Visibility: 10 mile(s):0
Sky conditions: overcast
Weather: light rain
Temperature: 59 F (15 C)
Dew Point: 42 F (6 C)
Relative Humidity: 54%
Pressure (altimeter): 30.15 in. Hg (1020 hPa)
ob: KVOK 250112Z 12012KT 10SM -RA SCT055 OVC090 15/06 A3015 RMK AO2A
cycle: 1

Station Type Date Time Source
KVOK TAF 2022/05/24 17:18 UTC NOAA

TAF KVOK 241700Z 2417/2523 10012KT 9999 FEW100 BKN150 QNH3018INS
BECMG 2507/2509 10012KT 8000 -RA SCT015 BKN040 OVC080 510204 QNH3007INS
BECMG 2512/2513 07012KT 8000 -RA SCT010 OVC020 520204 QNH2976INS TX17/2421Z TN07/2511Z LAST NO
AMDS AFT 2421 NEXT 2509

Example: see airport list